Time;durP1;ratioP1;P1;durP2;ratioP2;P2;SDS_P1;SDS_P2;PMS_P1;PMS_P2;Temp;Humidity;BMP_temperature;BMP_pressure;BME280_temperature;BME280_humidity;BME280_pressure;Samples;Min_cycle;Max_cycle;Signal;HPM_P1;HPM_P2
2023/06/21 00:00:15;;;;;;;30.35;23.58;;;20.80;99.90;;;;;;5018080;28;20112;-95
2023/06/21 00:02:46;;;;;;;24.02;18.38;;;20.80;99.90;;;;;;5034588;28;20048;-95
2023/06/21 00:05:16;;;;;;;23.35;17.92;;;20.80;99.90;;;;;;5018342;28;20084;-96
2023/06/21 00:07:53;;;;;;;;;;;;;;;;;;;;;
2023/06/21 00:10:27;;;;;;;18.55;15.07;;;20.80;99.90;;;;;;5048220;28;20055;-94
2023/06/21 00:12:58;;;;;;;18.20;14.07;;;20.70;99.90;;;;;;5038135;28;20021;-93
2023/06/21 00:15:27;;;;;;;25.17;16.20;;;20.70;99.90;;;;;;5055544;28;20017;-94
2023/06/21 00:18:01;;;;;;;19.52;13.10;;;20.70;99.90;;;;;;5055093;28;20025;-94
2023/06/21 00:20:37;;;;;;;18.17;14.05;;;20.60;99.90;;;;;;5001648;28;20128;-94
2023/06/21 00:23:08;;;;;;;18.13;14.20;;;20.70;99.90;;;;;;5019190;28;20132;-95
2023/06/21 00:25:34;;;;;;;;;;;20.60;99.90;;;;;;5054276;28;20059;-94
2023/06/21 00:28:00;;;;;;;14.95;11.93;;;20.60;99.90;;;;;;5054678;28;19967;-94
2023/06/21 00:30:41;;;;;;;15.52;11.30;;;20.50;99.90;;;;;;5053847;28;20458;-94
2023/06/21 00:33:06;;;;;;;14.10;11.73;;;20.50;99.90;;;;;;5054283;28;20021;-93
2023/06/21 00:35:32;;;;;;;17.55;13.50;;;20.40;99.90;;;;;;5054136;28;20032;-94
2023/06/21 00:38:17;;;;;;;;;;;;;;;;;;;;;
2023/06/21 00:40:45;;;;;;;14.85;11.52;;;20.30;99.90;;;;;;5033875;28;20468;-93
2023/06/21 00:43:16;;;;;;;16.55;12.15;;;20.30;99.90;;;;;;5035763;28;20059;-92
2023/06/21 00:45:48;;;;;;;;;;;20.20;99.90;;;;;;5036846;28;20028;-94
2023/06/21 00:48:21;;;;;;;18.20;12.75;;;20.10;99.90;;;;;;5037256;28;19966;-95
2023/06/21 00:50:53;;;;;;;14.43;12.27;;;20.10;99.90;;;;;;5054098;28;20033;-94
2023/06/21 00:53:23;;;;;;;17.30;12.77;;;20.10;99.90;;;;;;5034148;28;20033;-94
2023/06/21 00:55:49;;;;;;;15.45;12.20;;;20.10;99.90;;;;;;5033162;28;20116;-95
2023/06/21 00:58:20;;;;;;;14.30;11.93;;;20.10;99.90;;;;;;5053169;28;20017;-94
2023/06/21 01:00:52;;;;;;;20.65;14.65;;;20.10;99.90;;;;;;5053648;28;20021;-94
2023/06/21 01:03:22;;;;;;;17.75;12.63;;;20.10;99.90;;;;;;5036853;28;20049;-94
2023/06/21 01:06:04;;;;;;;17.10;13.40;;;20.20;99.90;;;;;;5049791;28;20048;-94
2023/06/21 01:08:53;;;;;;;17.58;13.35;;;20.10;99.90;;;;;;5033400;28;20056;-94
2023/06/21 01:11:30;;;;;;;17.23;13.55;;;20.10;99.90;;;;;;5017225;28;20548;-94
2023/06/21 01:14:34;;;;;;;16.02;13.65;;;20.10;99.90;;;;;;5036529;28;20025;-94
2023/06/21 01:17:07;;;;;;;18.48;14.40;;;20.10;99.90;;;;;;5033685;28;20026;-94
2023/06/21 01:19:46;;;;;;;21.65;15.32;;;20.00;99.90;;;;;;5044625;28;20021;-95
2023/06/21 01:22:23;;;;;;;18.40;14.25;;;20.00;99.90;;;;;;5036479;28;20022;-95
2023/06/21 01:25:21;;;;;;;25.48;16.20;;;20.00;99.90;;;;;;5034017;28;20095;-96
2023/06/21 01:27:55;;;;;;;29.08;17.60;;;20.10;99.90;;;;;;5039338;28;20025;-95
2023/06/21 01:30:25;;;;;;;19.25;15.20;;;20.10;99.90;;;;;;5047345;28;20028;-94
2023/06/21 01:32:54;;;;;;;19.98;15.95;;;20.10;99.90;;;;;;5051974;28;20030;-94
2023/06/21 01:35:22;;;;;;;21.80;16.40;;;20.10;99.90;;;;;;5032271;28;20024;-93
2023/06/21 01:38:00;;;;;;;20.35;16.08;;;20.00;99.90;;;;;;5053838;28;20021;-95
2023/06/21 01:40:28;;;;;;;21.30;16.75;;;20.00;99.90;;;;;;5036830;28;20053;-94
2023/06/21 01:42:57;;;;;;;23.83;17.38;;;20.00;99.90;;;;;;5051100;28;20022;-94
2023/06/21 01:45:25;;;;;;;22.58;17.08;;;20.00;99.90;;;;;;5056674;28;20017;-95
2023/06/21 01:47:56;;;;;;;23.48;18.70;;;20.00;99.90;;;;;;5039892;28;20025;-94
2023/06/21 01:50:22;;;;;;;26.42;19.60;;;20.00;99.90;;;;;;5056103;28;20098;-94
2023/06/21 01:53:10;;;;;;;;;;;;;;;;;;;;;
2023/06/21 01:55:50;;;;;;;24.58;19.40;;;19.90;99.90;;;;;;5058450;28;20028;-95
2023/06/21 01:58:23;;;;;;;31.70;21.67;;;20.00;99.90;;;;;;5056838;28;20528;-94
2023/06/21 02:01:02;;;;;;;24.95;20.25;;;20.00;99.90;;;;;;5037372;28;20199;-94
2023/06/21 02:03:31;;;;;;;26.70;21.13;;;20.00;99.90;;;;;;5049607;28;20082;-94
2023/06/21 02:06:03;;;;;;;26.73;20.48;;;20.00;99.90;;;;;;5039118;28;20032;-93
2023/06/21 02:08:33;;;;;;;26.38;21.10;;;20.00;99.90;;;;;;5040036;28;20049;-94
2023/06/21 02:11:21;;;;;;;33.42;22.92;;;20.00;99.90;;;;;;5063163;28;20040;-94
2023/06/21 02:13:48;;;;;;;27.73;22.52;;;20.00;99.90;;;;;;5064762;28;20057;-94
2023/06/21 02:16:33;;;;;;;24.08;20.83;;;20.00;99.90;;;;;;5042136;28;20025;-93
2023/06/21 02:19:02;;;;;;;38.78;26.02;;;20.00;99.90;;;;;;5037504;28;20025;-94
2023/06/21 02:21:28;;;;;;;28.98;23.08;;;20.00;99.90;;;;;;5056008;28;20033;-94
2023/06/21 02:23:57;;;;;;;30.92;23.27;;;20.00;99.90;;;;;;5036259;28;20029;-95
2023/06/21 02:26:23;;;;;;;37.33;24.65;;;20.00;99.90;;;;;;5056823;28;20049;-95
2023/06/21 02:29:00;;;;;;;29.60;24.42;;;20.10;99.90;;;;;;5037844;28;20104;-94
2023/06/21 02:31:26;;;;;;;35.72;26.15;;;20.10;99.90;;;;;;5018958;28;20337;-93
2023/06/21 02:34:09;;;;;;;35.03;26.10;;;20.00;99.90;;;;;;5017197;28;20472;-95
2023/06/21 02:36:36;;;;;;;28.38;23.90;;;20.00;99.90;;;;;;4999970;28;20033;-96
2023/06/21 02:39:13;;;;;;;39.67;26.23;;;20.00;99.90;;;;;;5035064;28;20017;-95
2023/06/21 02:41:41;;;;;;;35.90;24.92;;;20.00;99.90;;;;;;5005612;28;20038;-95
2023/06/21 02:44:24;;;;;;;38.80;26.27;;;20.00;99.90;;;;;;5037001;28;20026;-95
2023/06/21 02:46:56;;;;;;;40.10;26.58;;;20.00;99.90;;;;;;5036838;28;20025;-95
2023/06/21 02:49:24;;;;;;;36.65;26.75;;;20.00;99.90;;;;;;5035588;28;20037;-94
2023/06/21 02:52:08;;;;;;;32.20;25.23;;;20.00;99.90;;;;;;5019761;28;20083;-94
2023/06/21 02:54:37;;;;;;;41.75;28.10;;;20.00;99.90;;;;;;5036653;28;20468;-96
2023/06/21 02:57:11;;;;;;;36.33;26.05;;;20.00;99.90;;;;;;5036517;28;20036;-94
2023/06/21 02:59:37;;;;;;;32.50;24.42;;;20.00;99.90;;;;;;5016477;28;20033;-95
2023/06/21 03:02:14;;;;;;;40.08;28.02;;;20.00;99.90;;;;;;5034349;28;20025;-95
2023/06/21 03:04:40;;;;;;;31.50;25.42;;;20.00;99.90;;;;;;5037039;28;20017;-94
2023/06/21 03:07:07;;;;;;;36.08;25.92;;;20.00;99.90;;;;;;5039174;28;20025;-95
2023/06/21 03:09:38;;;;;;;42.60;28.42;;;20.00;99.90;;;;;;5042820;28;20049;-94
2023/06/21 03:12:12;;;;;;;41.83;27.77;;;20.00;99.90;;;;;;5020530;28;20063;-94
2023/06/21 03:14:42;;;;;;;39.88;28.25;;;20.00;99.90;;;;;;5036915;28;20022;-94
2023/06/21 03:17:10;;;;;;;55.37;31.10;;;20.00;99.90;;;;;;5035586;28;20018;-95
2023/06/21 03:19:38;;;;;;;42.25;28.63;;;20.00;99.90;;;;;;5035775;28;20033;-95
2023/06/21 03:22:06;;;;;;;41.25;28.38;;;20.00;99.90;;;;;;5037124;28;20120;-94
2023/06/21 03:24:35;;;;;;;42.30;28.92;;;20.00;99.90;;;;;;5035331;28;20033;-94
2023/06/21 03:27:02;;;;;;;49.15;30.60;;;19.90;99.90;;;;;;5034720;28;20104;-94
2023/06/21 03:29:31;;;;;;;38.30;28.13;;;19.90;99.90;;;;;;5036565;28;20021;-95
2023/06/21 03:31:57;;;;;;;56.53;31.67;;;19.90;99.90;;;;;;5035846;28;20097;-95
2023/06/21 03:34:47;;;;;;;46.17;30.67;;;19.80;99.90;;;;;;5037258;28;20021;-94
2023/06/21 03:37:15;;;;;;;37.38;27.33;;;19.80;99.90;;;;;;5022141;28;20026;-95
2023/06/21 03:39:43;;;;;;;43.22;28.55;;;19.80;99.90;;;;;;5040366;28;20025;-96
2023/06/21 03:42:17;;;;;;;42.72;29.85;;;19.80;99.90;;;;;;5039995;28;20056;-95
2023/06/21 03:45:10;;;;;;;45.58;30.60;;;19.80;99.90;;;;;;5022154;28;20033;-95
2023/06/21 03:48:14;;;;;;;40.35;29.25;;;19.70;99.90;;;;;;5006187;28;20037;-95
2023/06/21 03:50:48;;;;;;;48.75;30.42;;;19.70;99.90;;;;;;5023210;28;20048;-96
2023/06/21 03:53:22;;;;;;;48.75;31.27;;;19.70;99.90;;;;;;5005469;28;20048;-96
2023/06/21 03:55:57;;;;;;;58.22;33.05;;;19.70;99.90;;;;;;4989603;28;20076;-95
2023/06/21 04:01:11;;;;;;;47.35;31.02;;;19.70;99.90;;;;;;5030554;28;20037;-95
2023/06/21 04:03:58;;;;;;;;;;;;;;;;;;;;;
2023/06/21 04:06:28;;;;;;;44.60;30.15;;;19.70;99.90;;;;;;5023503;28;20552;-96
2023/06/21 04:09:09;;;;;;;42.97;30.27;;;19.70;99.90;;;;;;5036953;28;20056;-95
2023/06/21 04:12:01;;;;;;;45.75;31.38;;;19.70;99.90;;;;;;5011882;28;20034;-96
2023/06/21 04:15:00;;;;;;;44.53;30.95;;;19.70;99.90;;;;;;5040395;28;20116;-96
2023/06/21 04:17:39;;;;;;;48.28;30.52;;;19.70;99.90;;;;;;5034742;28;20033;-95
2023/06/21 04:20:49;;;;;;;;;;;;;;;;;;;;;
2023/06/21 04:23:57;;;;;;;62.63;34.60;;;19.70;99.90;;;;;;5029094;28;20128;-95
2023/06/21 04:27:00;;;;;;;51.83;32.75;;;19.70;99.90;;;;;;5030533;28;20037;-96
2023/06/21 04:29:39;;;;;;;;;;;;;;;;;;;;;
2023/06/21 04:32:08;;;;;;;62.95;36.13;;;19.70;99.90;;;;;;5028043;28;20093;-95
2023/06/21 04:34:44;;;;;;;57.08;35.90;;;19.70;99.90;;;;;;5043662;28;20029;-96
2023/06/21 04:37:28;;;;;;;52.25;33.67;;;19.70;99.90;;;;;;5043503;28;20030;-95
2023/06/21 04:40:10;;;;;;;;;;;;;;;;;;;;;
2023/06/21 04:42:46;;;;;;;;;;;;;;;;;;;;;
2023/06/21 04:58:35;;;;;;;55.42;35.92;;;19.70;99.90;;;;;;4951128;29;20027;-96
2023/06/21 05:01:57;;;;;;;;;;;;;;;;;;;;;
2023/06/21 05:04:23;;;;;;;70.03;39.78;;;19.70;99.90;;;;;;5042119;28;20073;-90
2023/06/21 05:06:49;;;;;;;66.95;39.83;;;19.80;99.90;;;;;;5015871;28;20056;-86
2023/06/21 05:09:14;;;;;;;64.25;39.33;;;19.80;99.90;;;;;;5015300;28;20089;-85
2023/06/21 05:11:40;;;;;;;62.28;39.13;;;19.80;99.90;;;;;;5000340;28;20124;-86
2023/06/21 05:14:13;;;;;;;67.70;38.72;;;19.80;99.90;;;;;;5042432;28;20029;-96
2023/06/21 05:16:41;;;;;;;54.25;36.65;;;19.80;99.90;;;;;;5035959;28;20037;-96
2023/06/21 05:19:16;;;;;;;62.17;38.85;;;19.80;99.90;;;;;;5002727;28;20033;-96
2023/06/21 05:22:26;;;;;;;73.13;40.25;;;19.90;99.90;;;;;;5049553;28;20026;-96
2023/06/21 05:24:54;;;;;;;62.75;38.60;;;19.90;99.90;;;;;;5047281;28;20036;-96
2023/06/21 05:27:32;;;;;;;51.65;34.60;;;20.00;99.90;;;;;;5051064;28;20044;-96
2023/06/21 05:30:30;;;;;;;;;;;;;;;;;;;;;
2023/06/21 05:32:59;;;;;;;66.07;38.80;;;20.00;99.90;;;;;;5039352;28;20114;-96
2023/06/21 05:35:34;;;;;;;81.55;41.63;;;20.10;99.90;;;;;;5046165;28;20105;-95
2023/06/21 05:38:08;;;;;;;69.43;38.42;;;20.10;99.90;;;;;;5042237;28;20025;-95
2023/06/21 05:40:34;;;;;;;61.58;37.40;;;20.10;99.90;;;;;;5042698;28;20021;-95
2023/06/21 05:43:08;;;;;;;73.85;41.40;;;20.10;99.90;;;;;;5042594;28;20018;-95
2023/06/21 05:46:04;;;;;;;78.65;42.05;;;20.10;99.90;;;;;;5025272;28;20186;-96
2023/06/21 05:48:41;;;;;;;58.55;37.75;;;20.20;99.90;;;;;;5034319;28;20034;-95
2023/06/21 05:51:10;;;;;;;68.53;39.38;;;20.20;99.90;;;;;;5025165;28;20030;-95
2023/06/21 05:53:51;;;;;;;77.93;40.15;;;20.20;99.90;;;;;;5047352;28;20025;-96
2023/06/21 05:56:40;;;;;;;72.78;40.38;;;20.20;99.90;;;;;;5016515;28;20109;-96
2023/06/21 05:59:32;;;;;;;72.80;39.83;;;20.20;99.90;;;;;;5046729;28;20070;-96
2023/06/21 06:02:11;;;;;;;61.97;38.65;;;20.30;99.90;;;;;;5049439;28;20097;-96
2023/06/21 06:04:40;;;;;;;70.88;39.45;;;20.30;99.90;;;;;;5035080;28;20056;-96
2023/06/21 06:07:13;;;;;;;58.28;37.75;;;20.30;99.90;;;;;;5057510;28;20034;-96
2023/06/21 06:10:08;;;;;;;73.85;42.28;;;20.30;99.90;;;;;;5058043;28;20048;-96
2023/06/21 06:12:40;;;;;;;61.88;37.92;;;20.30;99.90;;;;;;5056244;28;20049;-94
2023/06/21 06:15:19;;;;;;;73.10;42.13;;;20.30;99.90;;;;;;5056889;28;20032;-96
2023/06/21 06:18:18;;;;;;;65.45;41.60;;;20.30;99.90;;;;;;5039369;28;20116;-95
2023/06/21 06:20:56;;;;;;;69.53;40.95;;;20.30;99.90;;;;;;5054599;28;20038;-96
2023/06/21 06:23:29;;;;;;;67.85;40.05;;;20.30;99.90;;;;;;5037966;28;20097;-96
2023/06/21 06:26:24;;;;;;;64.43;41.47;;;20.40;99.90;;;;;;5053333;28;20034;-96
2023/06/21 06:29:05;;;;;;;59.03;39.75;;;20.40;99.90;;;;;;5027212;28;20060;-96
2023/06/21 06:32:14;;;;;;;65.53;40.88;;;20.40;99.90;;;;;;5038693;28;20045;-96
2023/06/21 06:35:10;;;;;;;63.70;42.47;;;20.40;99.90;;;;;;5027455;28;20030;-96
2023/06/21 06:38:19;;;;;;;;;;;;;;;;;;;;;
2023/06/21 06:41:34;;;;;;;67.43;42.90;;;20.40;99.90;;;;;;5039542;28;20065;-96
2023/06/21 06:44:12;;;;;;;79.70;47.30;;;20.40;99.90;;;;;;5015385;28;20043;-96
2023/06/21 06:47:00;;;;;;;74.38;45.20;;;20.50;99.90;;;;;;5033977;28;20022;-96
2023/06/21 06:49:43;;;;;;;67.97;45.17;;;20.40;99.90;;;;;;5029160;28;20439;-96
2023/06/21 06:52:16;;;;;;;69.47;45.33;;;20.50;99.90;;;;;;5036463;28;20093;-96
2023/06/21 06:54:56;;;;;;;90.15;52.63;;;20.50;99.90;;;;;;5029866;28;20037;-96
2023/06/21 06:57:25;;;;;;;78.72;50.95;;;20.50;99.90;;;;;;5016492;28;20034;-96
2023/06/21 07:00:15;;;;;;;86.50;51.38;;;20.50;99.90;;;;;;5043069;28;20037;-96
2023/06/21 07:03:05;;;;;;;79.05;50.28;;;20.50;99.90;;;;;;5048878;28;20238;-96
2023/06/21 07:09:18;;;;;;;;;;;;;;;;;;;;;
2023/06/21 07:12:16;;;;;;;78.80;55.40;;;20.60;99.90;;;;;;5024867;28;20443;-96
2023/06/21 07:14:54;;;;;;;;;;;;;;;;;;;;;
2023/06/21 07:17:27;;;;;;;89.93;58.55;;;20.60;99.90;;;;;;5042250;28;20085;-96
2023/06/21 07:19:53;;;;;;;98.40;61.00;;;20.60;99.90;;;;;;5026418;28;20121;-95
2023/06/21 07:22:41;;;;;;;;;;;;;;;;;;;;;
2023/06/21 07:25:18;;;;;;;82.78;57.85;;;20.60;99.90;;;;;;5063326;28;20077;-96
2023/06/21 07:30:47;;;;;;;102.25;60.50;;;20.70;99.90;;;;;;5022598;28;20033;-96
2023/06/21 07:33:43;;;;;;;89.10;61.03;;;20.70;99.90;;;;;;5043163;28;20025;-96
2023/06/21 07:36:10;;;;;;;74.72;54.83;;;20.70;99.90;;;;;;5057622;28;20028;-96
2023/06/21 07:38:46;;;;;;;80.63;59.17;;;20.70;99.90;;;;;;5038911;28;20532;-96
2023/06/21 07:41:17;;;;;;;89.88;59.72;;;20.70;99.90;;;;;;5021865;28;20037;-96
2023/06/21 07:43:45;;;;;;;73.43;54.47;;;20.70;99.90;;;;;;5038628;28;20024;-96
2023/06/21 07:46:17;;;;;;;90.13;57.92;;;20.70;99.90;;;;;;5023331;28;20040;-96
2023/06/21 07:48:47;;;;;;;81.68;56.38;;;20.70;99.90;;;;;;5038986;28;20040;-95
2023/06/21 07:51:16;;;;;;;100.85;59.63;;;20.70;99.90;;;;;;5023390;28;20048;-96
2023/06/21 07:53:49;;;;;;;94.68;59.63;;;20.80;99.90;;;;;;5032654;28;20026;-96
2023/06/21 07:56:27;;;;;;;89.28;57.90;;;20.80;99.90;;;;;;5018556;28;20504;-95
2023/06/21 07:58:58;;;;;;;86.35;58.65;;;20.80;99.90;;;;;;5035784;28;20109;-96
2023/06/21 08:01:24;;;;;;;98.97;63.40;;;20.90;99.90;;;;;;5036745;28;20033;-92
2023/06/21 08:03:52;;;;;;;85.45;57.10;;;20.90;99.90;;;;;;5033359;28;20121;-92
2023/06/21 08:06:18;;;;;;;82.50;57.08;;;20.90;99.90;;;;;;5033933;28;20025;-93
2023/06/21 08:08:43;;;;;;;84.65;55.90;;;20.90;99.90;;;;;;5013352;28;20145;-92
2023/06/21 08:11:09;;;;;;;81.70;55.25;;;20.90;99.90;;;;;;4997642;28;20073;-92
2023/06/21 08:13:35;;;;;;;78.40;54.25;;;21.00;99.90;;;;;;5014128;28;20032;-93
2023/06/21 08:16:01;;;;;;;68.03;50.50;;;21.00;99.90;;;;;;4965464;28;20022;-93
2023/06/21 08:18:29;;;;;;;68.93;50.17;;;21.00;99.90;;;;;;4965539;28;20040;-93
2023/06/21 08:20:57;;;;;;;60.42;46.30;;;21.00;99.90;;;;;;4981371;28;20022;-93
2023/06/21 08:23:23;;;;;;;62.47;47.70;;;21.00;99.90;;;;;;4981339;28;20031;-95
2023/06/21 08:25:49;;;;;;;56.20;46.42;;;21.00;99.90;;;;;;4980684;28;20025;-94
2023/06/21 08:28:15;;;;;;;60.58;47.70;;;21.10;99.90;;;;;;4965345;28;20407;-92
2023/06/21 08:30:43;;;;;;;55.58;43.95;;;21.10;99.90;;;;;;4980535;28;20038;-93
2023/06/21 08:33:12;;;;;;;43.60;38.60;;;21.10;99.90;;;;;;4965364;28;20025;-91
2023/06/21 08:35:38;;;;;;;56.88;46.05;;;21.10;99.90;;;;;;5014773;28;20474;-92
2023/06/21 08:38:03;;;;;;;55.45;46.17;;;21.10;99.90;;;;;;4981171;28;20129;-93
2023/06/21 08:40:31;;;;;;;54.75;45.67;;;21.20;99.90;;;;;;4981022;28;20498;-93
2023/06/21 08:42:58;;;;;;;53.83;45.22;;;21.20;99.90;;;;;;4997068;28;20097;-90
2023/06/21 08:45:24;;;;;;;56.70;44.80;;;21.20;99.90;;;;;;4981053;28;20388;-91
2023/06/21 08:47:53;;;;;;;45.28;40.33;;;21.30;99.90;;;;;;4986160;28;20089;-94
2023/06/21 08:50:22;;;;;;;35.28;31.63;;;21.30;99.90;;;;;;4987397;28;20034;-95
2023/06/21 08:52:52;;;;;;;43.58;38.97;;;21.30;99.90;;;;;;4985816;28;20364;-91
2023/06/21 08:55:22;;;;;;;45.08;40.22;;;21.30;99.90;;;;;;5018272;28;20026;-91
2023/06/21 08:57:53;;;;;;;45.28;40.63;;;21.30;99.90;;;;;;5000589;28;20479;-93
2023/06/21 09:00:26;;;;;;;44.67;40.03;;;21.30;99.90;;;;;;5001036;28;20037;-91
2023/06/21 09:03:09;;;;;;;46.08;40.72;;;21.30;99.90;;;;;;5018113;28;20030;-90
2023/06/21 09:05:58;;;;;;;39.55;35.42;;;21.40;99.90;;;;;;5001118;28;20092;-90
2023/06/21 09:08:24;;;;;;;44.45;37.78;;;21.40;99.90;;;;;;5006155;28;20128;-91
2023/06/21 09:10:52;;;;;;;35.38;31.80;;;21.50;99.90;;;;;;5038844;28;20122;-92
2023/06/21 09:13:22;;;;;;;36.80;33.00;;;21.50;99.90;;;;;;5039458;28;20022;-91
2023/06/21 09:15:50;;;;;;;30.88;27.77;;;21.50;99.90;;;;;;5039784;28;20040;-89
2023/06/21 09:18:16;;;;;;;32.65;29.48;;;21.60;99.90;;;;;;5007140;28;20033;-91
2023/06/21 09:20:46;;;;;;;33.92;30.55;;;21.60;99.90;;;;;;5044404;28;20067;-90
2023/06/21 09:23:12;;;;;;;34.15;30.70;;;21.60;99.90;;;;;;5040398;28;20079;-90
2023/06/21 09:25:38;;;;;;;36.05;32.42;;;21.70;99.90;;;;;;5039921;28;20426;-91
2023/06/21 09:28:04;;;;;;;31.80;28.42;;;21.70;99.90;;;;;;5041206;28;20418;-90
2023/06/21 09:30:30;;;;;;;27.90;24.98;;;21.70;99.90;;;;;;5024368;28;20139;-89
2023/06/21 09:32:57;;;;;;;30.77;26.73;;;21.70;99.90;;;;;;5042086;28;20463;-89
2023/06/21 09:35:23;;;;;;;29.98;25.02;;;21.70;99.90;;;;;;5043468;28;20052;-90
2023/06/21 09:37:49;;;;;;;21.63;19.17;;;21.80;99.90;;;;;;5045632;28;20053;-87
2023/06/21 09:40:15;;;;;;;20.63;18.48;;;21.80;99.90;;;;;;5050619;28;20033;-89
2023/06/21 09:42:42;;;;;;;19.38;15.07;;;21.80;99.90;;;;;;5052938;28;20025;-91
2023/06/21 09:45:12;;;;;;;17.55;14.25;;;21.80;99.90;;;;;;5032780;28;20029;-90
2023/06/21 09:47:41;;;;;;;13.88;12.35;;;21.80;99.90;;;;;;5047349;28;20074;-91
2023/06/21 09:50:08;;;;;;;15.25;12.75;;;21.90;99.90;;;;;;5052990;28;20025;-91
2023/06/21 09:52:35;;;;;;;13.25;11.35;;;21.80;99.90;;;;;;5051698;28;20036;-90
2023/06/21 09:55:04;;;;;;;13.57;11.40;;;21.90;99.90;;;;;;5053519;28;20022;-88
2023/06/21 09:57:31;;;;;;;14.07;11.38;;;21.90;99.90;;;;;;5058133;28;20104;-90
2023/06/21 09:59:59;;;;;;;12.57;11.15;;;21.80;99.90;;;;;;5041834;28;20040;-89
2023/06/21 10:02:25;;;;;;;9.63;8.52;;;21.90;99.90;;;;;;5051344;28;20025;-90
2023/06/21 10:04:57;;;;;;;12.85;8.38;;;22.00;99.90;;;;;;5015507;28;20026;-90
2023/06/21 10:07:24;;;;;;;13.38;9.27;;;22.00;99.90;;;;;;5035363;28;20029;-89
2023/06/21 10:09:50;;;;;;;12.95;8.63;;;22.00;99.90;;;;;;5058166;28;20049;-90
2023/06/21 10:12:16;;;;;;;10.88;8.50;;;22.10;99.90;;;;;;5041416;28;20036;-90
2023/06/21 10:14:42;;;;;;;14.52;10.05;;;22.10;99.90;;;;;;5040297;28;20028;-89
2023/06/21 10:17:08;;;;;;;10.77;8.32;;;22.20;99.90;;;;;;5054532;28;20025;-90
2023/06/21 10:19:35;;;;;;;10.32;7.68;;;22.10;99.90;;;;;;5054178;28;20052;-90
2023/06/21 10:22:08;;;;;;;11.75;8.82;;;22.20;99.90;;;;;;5036946;28;20033;-88
2023/06/21 10:24:46;;;;;;;10.88;8.07;;;22.20;99.90;;;;;;5036882;28;20017;-89
2023/06/21 10:27:13;;;;;;;12.93;8.80;;;22.20;99.90;;;;;;5035994;28;20017;-89
2023/06/21 10:29:42;;;;;;;11.45;7.80;;;22.30;99.90;;;;;;5034640;28;20272;-89
2023/06/21 10:32:08;;;;;;;10.70;7.90;;;22.30;99.90;;;;;;5031875;28;20033;-91
2023/06/21 10:34:45;;;;;;;8.60;6.40;;;22.30;99.90;;;;;;5027581;28;20033;-89
2023/06/21 10:37:22;;;;;;;10.07;7.50;;;22.40;99.90;;;;;;5021242;28;20038;-90
2023/06/21 10:39:52;;;;;;;9.63;7.10;;;22.40;99.90;;;;;;5018770;28;20029;-88
2023/06/21 10:42:19;;;;;;;9.35;7.38;;;22.50;99.90;;;;;;5018667;28;20057;-89
2023/06/21 10:44:46;;;;;;;8.52;6.10;;;22.50;99.90;;;;;;5002255;28;20120;-89
2023/06/21 10:47:13;;;;;;;10.82;8.07;;;22.60;99.90;;;;;;5035730;28;20033;-90
2023/06/21 10:49:40;;;;;;;9.32;6.68;;;22.60;99.90;;;;;;5018662;28;20037;-94
2023/06/21 10:52:06;;;;;;;8.93;6.28;;;22.60;99.90;;;;;;5017920;28;20129;-93
2023/06/21 10:54:33;;;;;;;9.50;5.90;;;22.60;99.90;;;;;;5002509;28;20391;-94
2023/06/21 10:56:59;;;;;;;8.82;5.65;;;22.60;99.90;;;;;;5002027;28;20025;-94
2023/06/21 10:59:27;;;;;;;6.70;5.00;;;22.70;99.90;;;;;;5018468;28;20360;-92
2023/06/21 11:01:53;;;;;;;8.05;5.90;;;22.70;99.90;;;;;;5002148;28;20479;-94
2023/06/21 11:04:21;;;;;;;9.60;5.78;;;22.70;99.90;;;;;;5018545;28;20084;-93
2023/06/21 11:06:47;;;;;;;8.40;5.97;;;22.70;99.90;;;;;;5002363;28;20036;-92
2023/06/21 11:09:20;;;;;;;6.75;5.18;;;22.70;99.90;;;;;;5017616;28;20495;-92
2023/06/21 11:11:51;;;;;;;9.57;4.95;;;22.70;99.90;;;;;;5018480;28;20033;-94
2023/06/21 11:14:21;;;;;;;7.20;5.32;;;22.70;99.90;;;;;;5019247;28;20018;-92
2023/06/21 11:16:49;;;;;;;;;;;22.80;99.90;;;;;;5019103;28;20063;-92
2023/06/21 11:19:16;;;;;;;7.20;4.78;;;22.80;99.90;;;;;;5021243;28;19955;-90
2023/06/21 11:21:49;;;;;;;8.18;5.22;;;22.80;99.90;;;;;;5021087;28;20033;-91
2023/06/21 11:24:18;;;;;;;6.43;4.93;;;22.80;99.90;;;;;;5036895;28;20028;-92
2023/06/21 11:27:00;;;;;;;7.40;5.32;;;22.80;99.90;;;;;;5035828;28;20049;-91
2023/06/21 11:29:40;;;;;;;10.38;5.88;;;22.80;99.90;;;;;;5017511;28;20025;-92
2023/06/21 11:32:13;;;;;;;7.18;5.18;;;22.90;99.90;;;;;;5036642;28;20041;-91
2023/06/21 11:34:56;;;;;;;6.55;4.57;;;23.00;99.90;;;;;;5003187;28;20075;-92
2023/06/21 11:37:47;;;;;;;6.55;4.53;;;23.10;99.90;;;;;;5029980;28;20080;-91
2023/06/21 11:40:27;;;;;;;6.38;4.07;;;23.10;99.90;;;;;;5019613;28;20029;-92
2023/06/21 11:42:53;;;;;;;5.43;3.55;;;23.10;99.90;;;;;;5017945;28;20116;-96
2023/06/21 11:45:32;;;;;;;6.70;3.80;;;23.10;99.90;;;;;;5018108;28;20055;-95
2023/06/21 11:48:12;;;;;;;5.30;3.75;;;23.20;99.90;;;;;;5018820;28;20025;-93
2023/06/21 11:50:48;;;;;;;6.20;3.47;;;23.20;99.90;;;;;;5019497;28;20068;-95
2023/06/21 11:53:28;;;;;;;5.28;3.65;;;23.20;99.90;;;;;;5035624;28;20030;-96
2023/06/21 11:55:55;;;;;;;5.57;3.13;;;23.30;99.90;;;;;;5018243;28;20029;-96
2023/06/21 11:58:22;;;;;;;4.75;3.38;;;23.40;99.90;;;;;;5017467;28;20022;-95
2023/06/21 12:00:48;;;;;;;6.22;3.90;;;23.40;99.90;;;;;;5017310;28;20036;-95
2023/06/21 12:03:18;;;;;;;5.97;3.30;;;23.50;99.90;;;;;;5034654;28;20034;-95
2023/06/21 12:05:55;;;;;;;4.97;3.10;;;23.50;99.90;;;;;;5017368;28;20108;-95
2023/06/21 12:08:29;;;;;;;5.90;3.50;;;23.60;99.90;;;;;;5017484;28;20084;-95
2023/06/21 12:11:03;;;;;;;7.13;3.30;;;23.60;99.90;;;;;;5018531;28;20084;-96
2023/06/21 12:13:37;;;;;;;7.22;3.50;;;23.70;99.90;;;;;;5018722;28;20025;-96
2023/06/21 12:16:07;;;;;;;7.65;3.42;;;23.80;99.90;;;;;;5018346;28;20075;-94
2023/06/21 12:18:36;;;;;;;5.13;3.30;;;23.90;99.90;;;;;;5019699;28;20021;-96
2023/06/21 12:21:09;;;;;;;5.32;3.20;;;23.90;99.90;;;;;;5017227;28;20030;-95
2023/06/21 12:23:35;;;;;;;6.90;3.38;;;24.00;99.90;;;;;;5018662;28;20077;-96
2023/06/21 12:26:21;;;;;;;4.85;3.42;;;24.00;99.90;;;;;;5018786;28;20098;-95
2023/06/21 12:28:47;;;;;;;6.13;4.05;;;24.00;99.90;;;;;;5018633;28;20049;-95
2023/06/21 12:31:16;;;;;;;4.57;3.55;;;24.10;99.90;;;;;;5017418;28;20479;-93
2023/06/21 12:33:43;;;;;;;6.00;3.88;;;24.10;99.90;;;;;;5017195;28;20486;-93
2023/06/21 12:36:20;;;;;;;5.00;3.30;;;24.10;99.90;;;;;;5034195;28;20145;-93
2023/06/21 12:39:05;;;;;;;6.40;4.07;;;24.20;99.90;;;;;;5016872;28;20029;-93
2023/06/21 12:41:33;;;;;;;5.80;3.65;;;24.20;99.90;;;;;;5016762;28;20029;-93
2023/06/21 12:44:00;;;;;;;7.57;4.05;;;24.20;99.90;;;;;;5016660;28;20025;-92
2023/06/21 12:46:27;;;;;;;4.38;3.55;;;24.30;99.90;;;;;;5034205;28;20037;-94
2023/06/21 12:48:54;;;;;;;7.75;4.10;;;24.30;99.90;;;;;;5037143;28;20029;-96
2023/06/21 12:51:30;;;;;;;7.85;3.83;;;24.40;99.90;;;;;;5017886;28;20044;-96
2023/06/21 12:53:59;;;;;;;6.97;3.30;;;24.50;99.90;;;;;;5036845;28;20017;-96
2023/06/21 12:56:29;;;;;;;5.90;3.53;;;24.50;99.90;;;;;;5036301;28;20045;-96
2023/06/21 12:58:55;;;;;;;5.93;3.28;;;24.50;99.90;;;;;;5019317;28;20472;-96
2023/06/21 13:01:24;;;;;;;5.38;3.33;;;24.50;99.90;;;;;;5036005;28;20040;-95
2023/06/21 13:04:01;;;;;;;4.47;3.00;;;24.60;99.90;;;;;;5018527;28;20092;-95
2023/06/21 13:06:27;;;;;;;4.15;2.83;;;24.60;99.90;;;;;;5019400;28;20021;-96
2023/06/21 13:09:00;;;;;;;4.10;2.95;;;24.70;99.90;;;;;;5021828;28;20053;-96
2023/06/21 13:11:37;;;;;;;;;;;;;;;;;;;;;
2023/06/21 13:14:05;;;;;;;5.28;3.33;;;24.70;99.90;;;;;;5037402;28;20108;-95
2023/06/21 13:16:31;;;;;;;5.35;3.58;;;24.80;99.90;;;;;;5019053;28;20026;-96
2023/06/21 13:18:59;;;;;;;6.80;3.20;;;24.80;99.90;;;;;;5017827;28;20112;-96
2023/06/21 13:21:28;;;;;;;8.25;3.15;;;24.90;99.90;;;;;;5017216;28;20025;-95
2023/06/21 13:23:59;;;;;;;4.28;2.78;;;24.90;99.90;;;;;;5034187;28;20032;-95
2023/06/21 13:26:25;;;;;;;6.93;3.00;;;25.00;99.90;;;;;;5016986;28;20061;-95
2023/06/21 13:28:51;;;;;;;5.78;3.13;;;25.00;99.90;;;;;;5017654;28;20033;-96
2023/06/21 13:31:17;;;;;;;5.25;3.20;;;25.00;99.90;;;;;;5034298;28;20033;-94
2023/06/21 13:33:55;;;;;;;6.13;3.22;;;25.00;99.90;;;;;;5037465;28;20014;-96
2023/06/21 13:36:23;;;;;;;3.90;2.80;;;25.00;99.90;;;;;;5021650;28;20364;-94
2023/06/21 13:38:49;;;;;;;6.05;2.58;;;25.00;99.90;;;;;;5019280;28;20108;-96
2023/06/21 13:41:14;;;;;;;7.13;2.80;;;25.00;99.90;;;;;;5023838;28;20049;-94
2023/06/21 13:43:40;;;;;;;7.95;3.15;;;25.10;99.90;;;;;;5022690;28;20117;-96
2023/06/21 13:46:06;;;;;;;3.47;2.13;;;25.10;99.90;;;;;;5048734;28;20013;-96